sensor_id;sensor_type;location;lat;lon;timestamp;P1;durP1;ratioP1;P2;durP2;ratioP2
3847;SDS011;1939;48.720;9.166;2023-07-13T00:01:11;3.83;;;1.33;;
3847;SDS011;1939;48.720;9.166;2023-07-13T00:03:36;3.10;;;1.60;;
3847;SDS011;1939;48.720;9.166;2023-07-13T00:06:02;2.17;;;1.10;;
3847;SDS011;1939;48.720;9.166;2023-07-13T00:08:30;4.10;;;1.53;;
3847;SDS011;1939;48.720;9.166;2023-07-13T00:10:55;3.43;;;1.77;;
3847;SDS011;1939;48.720;9.166;2023-07-13T00:13:20;2.30;;;1.40;;
3847;SDS011;1939;48.720;9.166;2023-07-13T00:15:46;6.90;;;1.67;;
3847;SDS011;1939;48.720;9.166;2023-07-13T00:18:11;3.33;;;1.50;;
3847;SDS011;1939;48.720;9.166;2023-07-13T00:20:36;9.20;;;1.70;;
3847;SDS011;1939;48.720;9.166;2023-07-13T00:23:02;3.40;;;1.70;;
3847;SDS011;1939;48.720;9.166;2023-07-13T00:28:18;2.27;;;1.73;;
3847;SDS011;1939;48.720;9.166;2023-07-13T00:30:44;1.90;;;1.47;;
3847;SDS011;1939;48.720;9.166;2023-07-13T00:33:09;4.20;;;1.80;;
3847;SDS011;1939;48.720;9.166;2023-07-13T00:35:36;4.60;;;1.30;;
3847;SDS011;1939;48.720;9.166;2023-07-13T00:38:03;3.57;;;1.30;;
3847;SDS011;1939;48.720;9.166;2023-07-13T00:40:28;3.07;;;1.63;;
3847;SDS011;1939;48.720;9.166;2023-07-13T00:42:56;6.13;;;1.93;;
3847;SDS011;1939;48.720;9.166;2023-07-13T00:47:56;5.13;;;1.37;;
3847;SDS011;1939;48.720;9.166;2023-07-13T00:50:23;2.23;;;1.57;;
3847;SDS011;1939;48.720;9.166;2023-07-13T00:52:50;7.33;;;1.80;;
3847;SDS011;1939;48.720;9.166;2023-07-13T00:55:16;5.53;;;1.33;;
3847;SDS011;1939;48.720;9.166;2023-07-13T00:57:42;5.20;;;1.27;;
3847;SDS011;1939;48.720;9.166;2023-07-13T01:00:08;5.17;;;1.17;;
3847;SDS011;1939;48.720;9.166;2023-07-13T01:02:34;1.87;;;1.70;;
3847;SDS011;1939;48.720;9.166;2023-07-13T01:05:00;3.77;;;1.40;;
3847;SDS011;1939;48.720;9.166;2023-07-13T01:07:26;2.67;;;1.90;;
3847;SDS011;1939;48.720;9.166;2023-07-13T01:09:52;1.90;;;1.37;;
3847;SDS011;1939;48.720;9.166;2023-07-13T01:12:17;4.40;;;1.07;;
3847;SDS011;1939;48.720;9.166;2023-07-13T01:14:42;2.27;;;1.73;;
3847;SDS011;1939;48.720;9.166;2023-07-13T01:17:08;4.20;;;1.37;;
3847;SDS011;1939;48.720;9.166;2023-07-13T01:19:45;3.00;;;1.87;;
3847;SDS011;1939;48.720;9.166;2023-07-13T01:22:14;4.80;;;1.60;;
3847;SDS011;1939;48.720;9.166;2023-07-13T01:24:46;2.23;;;1.50;;
3847;SDS011;1939;48.720;9.166;2023-07-13T01:27:13;3.83;;;2.10;;
3847;SDS011;1939;48.720;9.166;2023-07-13T01:29:39;3.97;;;1.60;;
3847;SDS011;1939;48.720;9.166;2023-07-13T01:32:16;1.80;;;1.70;;
3847;SDS011;1939;48.720;9.166;2023-07-13T01:34:46;5.37;;;2.20;;
3847;SDS011;1939;48.720;9.166;2023-07-13T01:37:12;10.13;;;1.67;;
3847;SDS011;1939;48.720;9.166;2023-07-13T01:39:37;5.50;;;1.20;;
3847;SDS011;1939;48.720;9.166;2023-07-13T01:42:03;3.20;;;1.73;;
3847;SDS011;1939;48.720;9.166;2023-07-13T01:44:29;7.53;;;1.87;;
3847;SDS011;1939;48.720;9.166;2023-07-13T01:46:54;3.70;;;1.70;;
3847;SDS011;1939;48.720;9.166;2023-07-13T01:49:19;2.43;;;1.40;;
3847;SDS011;1939;48.720;9.166;2023-07-13T01:51:45;2.73;;;1.60;;
3847;SDS011;1939;48.720;9.166;2023-07-13T01:54:10;2.70;;;1.60;;
3847;SDS011;1939;48.720;9.166;2023-07-13T01:56:35;1.93;;;1.67;;
3847;SDS011;1939;48.720;9.166;2023-07-13T01:59:00;4.30;;;1.47;;
3847;SDS011;1939;48.720;9.166;2023-07-13T02:01:25;2.10;;;1.70;;
3847;SDS011;1939;48.720;9.166;2023-07-13T02:03:51;1.60;;;1.30;;
3847;SDS011;1939;48.720;9.166;2023-07-13T02:06:16;4.00;;;1.93;;
3847;SDS011;1939;48.720;9.166;2023-07-13T02:08:42;12.30;;;2.23;;
3847;SDS011;1939;48.720;9.166;2023-07-13T02:11:08;2.47;;;1.40;;
3847;SDS011;1939;48.720;9.166;2023-07-13T02:13:33;2.30;;;1.87;;
3847;SDS011;1939;48.720;9.166;2023-07-13T02:15:58;2.90;;;1.77;;
3847;SDS011;1939;48.720;9.166;2023-07-13T02:18:23;5.70;;;2.37;;
3847;SDS011;1939;48.720;9.166;2023-07-13T02:20:49;2.03;;;1.60;;
3847;SDS011;1939;48.720;9.166;2023-07-13T02:23:14;3.80;;;1.73;;
3847;SDS011;1939;48.720;9.166;2023-07-13T02:25:39;2.63;;;1.73;;
3847;SDS011;1939;48.720;9.166;2023-07-13T02:28:05;4.37;;;1.80;;
3847;SDS011;1939;48.720;9.166;2023-07-13T02:30:30;3.47;;;2.10;;
3847;SDS011;1939;48.720;9.166;2023-07-13T02:32:56;5.30;;;2.17;;
3847;SDS011;1939;48.720;9.166;2023-07-13T02:35:21;2.37;;;1.80;;
3847;SDS011;1939;48.720;9.166;2023-07-13T02:37:46;2.57;;;1.73;;
3847;SDS011;1939;48.720;9.166;2023-07-13T02:40:15;7.47;;;2.30;;
3847;SDS011;1939;48.720;9.166;2023-07-13T02:42:40;4.17;;;2.10;;
3847;SDS011;1939;48.720;9.166;2023-07-13T02:45:06;4.83;;;1.97;;
3847;SDS011;1939;48.720;9.166;2023-07-13T02:47:32;2.60;;;1.90;;
3847;SDS011;1939;48.720;9.166;2023-07-13T02:49:57;3.57;;;2.33;;
3847;SDS011;1939;48.720;9.166;2023-07-13T02:52:23;5.70;;;2.17;;
3847;SDS011;1939;48.720;9.166;2023-07-13T02:54:48;6.70;;;1.70;;
3847;SDS011;1939;48.720;9.166;2023-07-13T02:57:13;11.77;;;2.10;;
3847;SDS011;1939;48.720;9.166;2023-07-13T02:59:38;3.53;;;2.10;;
3847;SDS011;1939;48.720;9.166;2023-07-13T03:02:04;5.63;;;2.30;;
3847;SDS011;1939;48.720;9.166;2023-07-13T03:04:29;10.80;;;2.40;;
3847;SDS011;1939;48.720;9.166;2023-07-13T03:06:54;4.27;;;2.00;;
3847;SDS011;1939;48.720;9.166;2023-07-13T03:09:23;3.80;;;2.33;;
3847;SDS011;1939;48.720;9.166;2023-07-13T03:11:48;6.03;;;1.73;;
3847;SDS011;1939;48.720;9.166;2023-07-13T03:14:13;3.23;;;1.80;;
3847;SDS011;1939;48.720;9.166;2023-07-13T03:16:39;7.13;;;3.07;;
3847;SDS011;1939;48.720;9.166;2023-07-13T03:19:04;4.00;;;2.23;;
3847;SDS011;1939;48.720;9.166;2023-07-13T03:21:30;7.13;;;2.37;;
3847;SDS011;1939;48.720;9.166;2023-07-13T03:23:55;5.43;;;2.33;;
3847;SDS011;1939;48.720;9.166;2023-07-13T03:26:21;8.70;;;2.83;;
3847;SDS011;1939;48.720;9.166;2023-07-13T03:28:46;2.80;;;1.63;;
3847;SDS011;1939;48.720;9.166;2023-07-13T03:31:22;5.80;;;2.30;;
3847;SDS011;1939;48.720;9.166;2023-07-13T03:33:59;5.17;;;2.70;;
3847;SDS011;1939;48.720;9.166;2023-07-13T03:36:25;3.60;;;2.10;;
3847;SDS011;1939;48.720;9.166;2023-07-13T03:38:53;3.43;;;2.13;;
3847;SDS011;1939;48.720;9.166;2023-07-13T03:41:19;7.27;;;2.30;;
3847;SDS011;1939;48.720;9.166;2023-07-13T03:43:44;8.90;;;3.10;;
3847;SDS011;1939;48.720;9.166;2023-07-13T03:46:09;4.60;;;2.30;;
3847;SDS011;1939;48.720;9.166;2023-07-13T03:48:34;4.37;;;2.40;;
3847;SDS011;1939;48.720;9.166;2023-07-13T03:51:00;6.93;;;3.83;;
3847;SDS011;1939;48.720;9.166;2023-07-13T03:53:25;4.67;;;2.33;;
3847;SDS011;1939;48.720;9.166;2023-07-13T03:55:50;4.37;;;2.77;;
3847;SDS011;1939;48.720;9.166;2023-07-13T04:00:53;5.47;;;2.50;;
3847;SDS011;1939;48.720;9.166;2023-07-13T04:03:19;4.10;;;2.10;;
3847;SDS011;1939;48.720;9.166;2023-07-13T04:05:44;4.83;;;1.80;;
3847;SDS011;1939;48.720;9.166;2023-07-13T04:08:09;2.80;;;2.00;;
3847;SDS011;1939;48.720;9.166;2023-07-13T04:10:35;4.73;;;2.20;;
3847;SDS011;1939;48.720;9.166;2023-07-13T04:13:00;12.30;;;3.10;;
3847;SDS011;1939;48.720;9.166;2023-07-13T04:15:26;2.73;;;2.00;;
3847;SDS011;1939;48.720;9.166;2023-07-13T04:17:51;4.47;;;2.10;;
3847;SDS011;1939;48.720;9.166;2023-07-13T04:20:16;5.20;;;2.60;;
3847;SDS011;1939;48.720;9.166;2023-07-13T04:22:41;8.40;;;2.57;;
3847;SDS011;1939;48.720;9.166;2023-07-13T04:25:07;2.47;;;2.07;;
3847;SDS011;1939;48.720;9.166;2023-07-13T04:27:32;4.90;;;2.10;;
3847;SDS011;1939;48.720;9.166;2023-07-13T04:29:57;5.83;;;1.90;;
3847;SDS011;1939;48.720;9.166;2023-07-13T04:32:22;4.27;;;1.80;;
3847;SDS011;1939;48.720;9.166;2023-07-13T04:34:48;2.33;;;1.57;;
3847;SDS011;1939;48.720;9.166;2023-07-13T04:37:17;2.70;;;1.63;;
3847;SDS011;1939;48.720;9.166;2023-07-13T04:39:42;2.60;;;1.60;;
3847;SDS011;1939;48.720;9.166;2023-07-13T04:42:07;2.67;;;1.93;;
3847;SDS011;1939;48.720;9.166;2023-07-13T04:44:32;2.40;;;1.80;;
3847;SDS011;1939;48.720;9.166;2023-07-13T04:46:58;4.00;;;1.93;;
3847;SDS011;1939;48.720;9.166;2023-07-13T04:49:23;5.03;;;1.90;;
3847;SDS011;1939;48.720;9.166;2023-07-13T04:51:48;4.90;;;2.33;;
3847;SDS011;1939;48.720;9.166;2023-07-13T04:54:13;7.30;;;3.00;;
3847;SDS011;1939;48.720;9.166;2023-07-13T04:56:38;6.50;;;2.40;;
3847;SDS011;1939;48.720;9.166;2023-07-13T04:59:04;9.60;;;2.13;;
3847;SDS011;1939;48.720;9.166;2023-07-13T05:01:29;2.80;;;2.03;;
3847;SDS011;1939;48.720;9.166;2023-07-13T05:03:54;4.33;;;2.67;;
3847;SDS011;1939;48.720;9.166;2023-07-13T05:06:22;5.13;;;2.87;;
3847;SDS011;1939;48.720;9.166;2023-07-13T05:08:47;3.70;;;2.50;;
3847;SDS011;1939;48.720;9.166;2023-07-13T05:14:00;5.47;;;2.27;;
3847;SDS011;1939;48.720;9.166;2023-07-13T05:16:26;2.87;;;2.27;;
3847;SDS011;1939;48.720;9.166;2023-07-13T05:18:51;3.57;;;2.23;;
3847;SDS011;1939;48.720;9.166;2023-07-13T05:21:17;11.30;;;1.90;;
3847;SDS011;1939;48.720;9.166;2023-07-13T05:23:42;6.57;;;1.97;;
3847;SDS011;1939;48.720;9.166;2023-07-13T05:32:32;4.07;;;1.77;;
3847;SDS011;1939;48.720;9.166;2023-07-13T05:34:58;6.83;;;2.00;;
3847;SDS011;1939;48.720;9.166;2023-07-13T05:37:23;6.03;;;2.30;;
3847;SDS011;1939;48.720;9.166;2023-07-13T05:39:48;8.73;;;2.40;;
3847;SDS011;1939;48.720;9.166;2023-07-13T05:42:13;4.03;;;2.17;;
3847;SDS011;1939;48.720;9.166;2023-07-13T05:44:39;2.83;;;1.80;;
3847;SDS011;1939;48.720;9.166;2023-07-13T05:47:04;1.80;;;1.70;;
3847;SDS011;1939;48.720;9.166;2023-07-13T05:49:30;2.90;;;1.50;;
3847;SDS011;1939;48.720;9.166;2023-07-13T05:51:55;3.90;;;2.00;;
3847;SDS011;1939;48.720;9.166;2023-07-13T05:54:20;7.53;;;2.60;;
3847;SDS011;1939;48.720;9.166;2023-07-13T05:56:46;2.80;;;1.73;;
3847;SDS011;1939;48.720;9.166;2023-07-13T05:59:11;3.43;;;1.70;;
3847;SDS011;1939;48.720;9.166;2023-07-13T06:01:37;9.90;;;3.50;;
3847;SDS011;1939;48.720;9.166;2023-07-13T06:04:02;4.00;;;1.90;;
3847;SDS011;1939;48.720;9.166;2023-07-13T06:06:28;4.40;;;2.17;;
3847;SDS011;1939;48.720;9.166;2023-07-13T06:08:53;3.80;;;2.37;;
3847;SDS011;1939;48.720;9.166;2023-07-13T06:11:22;3.90;;;2.07;;
3847;SDS011;1939;48.720;9.166;2023-07-13T06:13:48;2.77;;;2.10;;
3847;SDS011;1939;48.720;9.166;2023-07-13T06:16:13;5.80;;;2.13;;
3847;SDS011;1939;48.720;9.166;2023-07-13T06:18:39;3.97;;;2.30;;
3847;SDS011;1939;48.720;9.166;2023-07-13T06:21:09;5.03;;;1.70;;
3847;SDS011;1939;48.720;9.166;2023-07-13T06:23:34;2.10;;;1.53;;
3847;SDS011;1939;48.720;9.166;2023-07-13T06:25:59;3.50;;;2.33;;
3847;SDS011;1939;48.720;9.166;2023-07-13T06:28:25;3.93;;;1.70;;
3847;SDS011;1939;48.720;9.166;2023-07-13T06:30:50;2.93;;;1.90;;
3847;SDS011;1939;48.720;9.166;2023-07-13T06:33:15;3.07;;;2.00;;
3847;SDS011;1939;48.720;9.166;2023-07-13T06:35:41;3.43;;;1.87;;
3847;SDS011;1939;48.720;9.166;2023-07-13T06:38:06;4.83;;;2.00;;
3847;SDS011;1939;48.720;9.166;2023-07-13T06:40:31;6.50;;;1.47;;
3847;SDS011;1939;48.720;9.166;2023-07-13T06:42:57;2.63;;;1.60;;
3847;SDS011;1939;48.720;9.166;2023-07-13T06:45:22;4.07;;;1.40;;
3847;SDS011;1939;48.720;9.166;2023-07-13T06:47:47;3.73;;;1.60;;
3847;SDS011;1939;48.720;9.166;2023-07-13T06:50:13;6.33;;;1.20;;
3847;SDS011;1939;48.720;9.166;2023-07-13T06:52:38;4.90;;;1.20;;
3847;SDS011;1939;48.720;9.166;2023-07-13T06:55:03;8.50;;;1.17;;
3847;SDS011;1939;48.720;9.166;2023-07-13T06:57:28;8.23;;;1.33;;
3847;SDS011;1939;48.720;9.166;2023-07-13T06:59:54;2.60;;;1.17;;
3847;SDS011;1939;48.720;9.166;2023-07-13T07:02:19;2.60;;;1.00;;
3847;SDS011;1939;48.720;9.166;2023-07-13T07:04:44;3.23;;;1.43;;
3847;SDS011;1939;48.720;9.166;2023-07-13T07:07:09;2.37;;;1.90;;
3847;SDS011;1939;48.720;9.166;2023-07-13T07:09:35;2.07;;;1.23;;
3847;SDS011;1939;48.720;9.166;2023-07-13T07:12:00;2.40;;;1.27;;
3847;SDS011;1939;48.720;9.166;2023-07-13T07:14:25;1.10;;;1.00;;
3847;SDS011;1939;48.720;9.166;2023-07-13T07:16:51;5.37;;;1.03;;
3847;SDS011;1939;48.720;9.166;2023-07-13T07:19:17;1.30;;;0.90;;
3847;SDS011;1939;48.720;9.166;2023-07-13T07:21:42;1.00;;;0.67;;
3847;SDS011;1939;48.720;9.166;2023-07-13T07:24:07;0.90;;;0.77;;
3847;SDS011;1939;48.720;9.166;2023-07-13T07:26:33;0.77;;;0.70;;
3847;SDS011;1939;48.720;9.166;2023-07-13T07:28:59;1.00;;;0.83;;
3847;SDS011;1939;48.720;9.166;2023-07-13T07:31:24;1.53;;;0.70;;
3847;SDS011;1939;48.720;9.166;2023-07-13T07:33:49;2.60;;;0.90;;
3847;SDS011;1939;48.720;9.166;2023-07-13T07:36:15;3.17;;;0.90;;
3847;SDS011;1939;48.720;9.166;2023-07-13T07:38:41;1.30;;;1.00;;
3847;SDS011;1939;48.720;9.166;2023-07-13T07:41:06;1.63;;;1.00;;
3847;SDS011;1939;48.720;9.166;2023-07-13T07:43:31;1.90;;;0.93;;
3847;SDS011;1939;48.720;9.166;2023-07-13T07:45:57;2.57;;;0.90;;
3847;SDS011;1939;48.720;9.166;2023-07-13T07:48:23;1.70;;;0.90;;
3847;SDS011;1939;48.720;9.166;2023-07-13T07:50:48;2.30;;;1.10;;
3847;SDS011;1939;48.720;9.166;2023-07-13T07:53:13;1.37;;;0.80;;
3847;SDS011;1939;48.720;9.166;2023-07-13T07:55:38;1.67;;;0.90;;
3847;SDS011;1939;48.720;9.166;2023-07-13T07:58:04;3.07;;;1.30;;
3847;SDS011;1939;48.720;9.166;2023-07-13T08:00:30;2.83;;;1.33;;
3847;SDS011;1939;48.720;9.166;2023-07-13T08:02:57;1.30;;;0.97;;
3847;SDS011;1939;48.720;9.166;2023-07-13T08:05:22;1.33;;;0.90;;
3847;SDS011;1939;48.720;9.166;2023-07-13T08:07:47;2.00;;;0.90;;
3847;SDS011;1939;48.720;9.166;2023-07-13T08:10:12;2.93;;;0.90;;
3847;SDS011;1939;48.720;9.166;2023-07-13T08:12:38;2.30;;;1.17;;
3847;SDS011;1939;48.720;9.166;2023-07-13T08:15:04;3.53;;;1.00;;
3847;SDS011;1939;48.720;9.166;2023-07-13T08:17:29;1.67;;;1.00;;
3847;SDS011;1939;48.720;9.166;2023-07-13T08:19:55;2.17;;;1.00;;
3847;SDS011;1939;48.720;9.166;2023-07-13T08:22:20;3.00;;;0.90;;
3847;SDS011;1939;48.720;9.166;2023-07-13T08:24:45;4.07;;;1.10;;
3847;SDS011;1939;48.720;9.166;2023-07-13T08:27:12;3.10;;;1.10;;
3847;SDS011;1939;48.720;9.166;2023-07-13T08:29:38;4.53;;;1.17;;
3847;SDS011;1939;48.720;9.166;2023-07-13T08:32:04;2.30;;;0.90;;
3847;SDS011;1939;48.720;9.166;2023-07-13T08:34:30;2.43;;;1.20;;
3847;SDS011;1939;48.720;9.166;2023-07-13T08:36:55;2.73;;;0.87;;
3847;SDS011;1939;48.720;9.166;2023-07-13T08:39:20;4.30;;;0.90;;
3847;SDS011;1939;48.720;9.166;2023-07-13T08:41:46;2.70;;;1.13;;
3847;SDS011;1939;48.720;9.166;2023-07-13T08:44:20;1.10;;;1.00;;
3847;SDS011;1939;48.720;9.166;2023-07-13T08:46:47;3.50;;;1.27;;
3847;SDS011;1939;48.720;9.166;2023-07-13T08:49:15;1.90;;;0.90;;
3847;SDS011;1939;48.720;9.166;2023-07-13T08:51:45;2.50;;;0.90;;
3847;SDS011;1939;48.720;9.166;2023-07-13T08:54:17;3.33;;;0.90;;
3847;SDS011;1939;48.720;9.166;2023-07-13T08:56:44;1.83;;;0.80;;
3847;SDS011;1939;48.720;9.166;2023-07-13T08:59:15;2.83;;;1.30;;
3847;SDS011;1939;48.720;9.166;2023-07-13T09:04:30;0.87;;;0.80;;
3847;SDS011;1939;48.720;9.166;2023-07-13T09:07:01;2.37;;;0.97;;
3847;SDS011;1939;48.720;9.166;2023-07-13T09:11:56;7.23;;;1.10;;
3847;SDS011;1939;48.720;9.166;2023-07-13T09:16:51;1.67;;;0.93;;
3847;SDS011;1939;48.720;9.166;2023-07-13T09:19:20;8.80;;;1.57;;
3847;SDS011;1939;48.720;9.166;2023-07-13T09:21:47;1.93;;;1.00;;
3847;SDS011;1939;48.720;9.166;2023-07-13T09:24:24;4.10;;;1.20;;
3847;SDS011;1939;48.720;9.166;2023-07-13T09:26:52;1.47;;;0.97;;
3847;SDS011;1939;48.720;9.166;2023-07-13T09:29:29;3.67;;;1.20;;
3847;SDS011;1939;48.720;9.166;2023-07-13T09:31:58;5.20;;;1.10;;
3847;SDS011;1939;48.720;9.166;2023-07-13T09:34:26;2.47;;;1.30;;
3847;SDS011;1939;48.720;9.166;2023-07-13T09:36:51;1.47;;;1.03;;
3847;SDS011;1939;48.720;9.166;2023-07-13T09:39:27;5.17;;;1.10;;
3847;SDS011;1939;48.720;9.166;2023-07-13T09:41:54;2.10;;;0.90;;
3847;SDS011;1939;48.720;9.166;2023-07-13T09:44:30;1.77;;;1.00;;
3847;SDS011;1939;48.720;9.166;2023-07-13T09:46:56;4.30;;;1.43;;
3847;SDS011;1939;48.720;9.166;2023-07-13T09:49:25;2.50;;;1.33;;
3847;SDS011;1939;48.720;9.166;2023-07-13T09:51:56;1.90;;;1.10;;
3847;SDS011;1939;48.720;9.166;2023-07-13T09:54:24;6.33;;;1.80;;
3847;SDS011;1939;48.720;9.166;2023-07-13T09:56:53;3.63;;;1.60;;
3847;SDS011;1939;48.720;9.166;2023-07-13T09:59:23;4.97;;;1.43;;
3847;SDS011;1939;48.720;9.166;2023-07-13T10:01:51;1.43;;;1.20;;
3847;SDS011;1939;48.720;9.166;2023-07-13T10:04:18;4.13;;;1.60;;
3847;SDS011;1939;48.720;9.166;2023-07-13T10:06:43;2.93;;;1.20;;
3847;SDS011;1939;48.720;9.166;2023-07-13T10:09:09;3.57;;;1.40;;
3847;SDS011;1939;48.720;9.166;2023-07-13T10:11:36;4.13;;;1.80;;
3847;SDS011;1939;48.720;9.166;2023-07-13T10:14:15;3.63;;;1.43;;
3847;SDS011;1939;48.720;9.166;2023-07-13T10:16:41;4.60;;;1.10;;
3847;SDS011;1939;48.720;9.166;2023-07-13T10:19:19;2.13;;;1.10;;
3847;SDS011;1939;48.720;9.166;2023-07-13T10:21:57;7.23;;;1.40;;
3847;SDS011;1939;48.720;9.166;2023-07-13T10:26:52;1.87;;;1.33;;
3847;SDS011;1939;48.720;9.166;2023-07-13T10:29:18;4.00;;;1.40;;
3847;SDS011;1939;48.720;9.166;2023-07-13T10:31:45;1.77;;;1.10;;
3847;SDS011;1939;48.720;9.166;2023-07-13T10:34:11;4.77;;;1.70;;
3847;SDS011;1939;48.720;9.166;2023-07-13T10:36:40;3.07;;;1.43;;
3847;SDS011;1939;48.720;9.166;2023-07-13T10:39:09;7.87;;;1.40;;
3847;SDS011;1939;48.720;9.166;2023-07-13T10:41:37;2.60;;;1.30;;
3847;SDS011;1939;48.720;9.166;2023-07-13T10:44:04;3.00;;;1.57;;
3847;SDS011;1939;48.720;9.166;2023-07-13T10:46:29;6.83;;;1.87;;
3847;SDS011;1939;48.720;9.166;2023-07-13T10:48:58;4.77;;;1.87;;
3847;SDS011;1939;48.720;9.166;2023-07-13T10:51:25;11.23;;;1.87;;
3847;SDS011;1939;48.720;9.166;2023-07-13T10:56:34;8.43;;;2.07;;
3847;SDS011;1939;48.720;9.166;2023-07-13T10:59:10;5.53;;;1.37;;
3847;SDS011;1939;48.720;9.166;2023-07-13T11:04:12;3.63;;;1.40;;
3847;SDS011;1939;48.720;9.166;2023-07-13T11:06:39;4.47;;;1.30;;
3847;SDS011;1939;48.720;9.166;2023-07-13T11:12:49;6.93;;;1.90;;
3847;SDS011;1939;48.720;9.166;2023-07-13T11:19:56;5.03;;;0.80;;
3847;SDS011;1939;48.720;9.166;2023-07-13T11:22:44;1.50;;;1.20;;
3847;SDS011;1939;48.720;9.166;2023-07-13T11:27:42;4.30;;;1.60;;
3847;SDS011;1939;48.720;9.166;2023-07-13T11:30:09;5.57;;;1.60;;
3847;SDS011;1939;48.720;9.166;2023-07-13T11:32:41;3.90;;;0.97;;
3847;SDS011;1939;48.720;9.166;2023-07-13T11:35:12;2.93;;;1.33;;
3847;SDS011;1939;48.720;9.166;2023-07-13T11:37:38;1.77;;;1.53;;
3847;SDS011;1939;48.720;9.166;2023-07-13T11:40:04;8.70;;;2.17;;
3847;SDS011;1939;48.720;9.166;2023-07-13T11:42:31;2.50;;;1.73;;
3847;SDS011;1939;48.720;9.166;2023-07-13T11:44:57;3.70;;;1.63;;
3847;SDS011;1939;48.720;9.166;2023-07-13T11:47:22;3.97;;;1.60;;
3847;SDS011;1939;48.720;9.166;2023-07-13T11:49:49;3.33;;;1.70;;
3847;SDS011;1939;48.720;9.166;2023-07-13T11:52:15;1.93;;;1.63;;
3847;SDS011;1939;48.720;9.166;2023-07-13T11:54:56;5.90;;;1.40;;
3847;SDS011;1939;48.720;9.166;2023-07-13T11:57:28;6.07;;;1.30;;
3847;SDS011;1939;48.720;9.166;2023-07-13T11:59:54;8.43;;;1.97;;
3847;SDS011;1939;48.720;9.166;2023-07-13T12:02:31;1.77;;;1.40;;
3847;SDS011;1939;48.720;9.166;2023-07-13T12:04:57;2.73;;;1.70;;
3847;SDS011;1939;48.720;9.166;2023-07-13T12:07:22;4.20;;;1.47;;
3847;SDS011;1939;48.720;9.166;2023-07-13T12:09:48;5.67;;;1.90;;
3847;SDS011;1939;48.720;9.166;2023-07-13T12:12:20;3.70;;;1.30;;
3847;SDS011;1939;48.720;9.166;2023-07-13T12:14:46;2.50;;;1.53;;
3847;SDS011;1939;48.720;9.166;2023-07-13T12:17:13;9.10;;;2.30;;
3847;SDS011;1939;48.720;9.166;2023-07-13T12:19:39;5.30;;;1.60;;
3847;SDS011;1939;48.720;9.166;2023-07-13T12:22:08;9.60;;;1.70;;
3847;SDS011;1939;48.720;9.166;2023-07-13T12:24:34;4.17;;;1.40;;
3847;SDS011;1939;48.720;9.166;2023-07-13T12:27:00;3.27;;;1.73;;
3847;SDS011;1939;48.720;9.166;2023-07-13T12:29:26;3.93;;;1.40;;
3847;SDS011;1939;48.720;9.166;2023-07-13T12:31:53;10.83;;;1.57;;
3847;SDS011;1939;48.720;9.166;2023-07-13T12:34:22;2.50;;;1.10;;
3847;SDS011;1939;48.720;9.166;2023-07-13T12:36:52;3.23;;;1.50;;
3847;SDS011;1939;48.720;9.166;2023-07-13T12:39:19;2.00;;;1.30;;
3847;SDS011;1939;48.720;9.166;2023-07-13T12:41:45;1.40;;;1.00;;
3847;SDS011;1939;48.720;9.166;2023-07-13T12:44:11;5.10;;;1.30;;
3847;SDS011;1939;48.720;9.166;2023-07-13T12:46:37;2.50;;;1.37;;
3847;SDS011;1939;48.720;9.166;2023-07-13T12:49:05;3.53;;;1.50;;
3847;SDS011;1939;48.720;9.166;2023-07-13T12:51:32;10.80;;;1.57;;
3847;SDS011;1939;48.720;9.166;2023-07-13T12:54:05;3.53;;;1.60;;
3847;SDS011;1939;48.720;9.166;2023-07-13T12:56:30;7.77;;;2.40;;
3847;SDS011;1939;48.720;9.166;2023-07-13T12:59:00;3.73;;;1.50;;
3847;SDS011;1939;48.720;9.166;2023-07-13T13:01:27;3.60;;;1.33;;
3847;SDS011;1939;48.720;9.166;2023-07-13T13:03:53;3.77;;;1.17;;
3847;SDS011;1939;48.720;9.166;2023-07-13T13:08:44;4.77;;;1.80;;
3847;SDS011;1939;48.720;9.166;2023-07-13T13:11:10;6.13;;;1.63;;
3847;SDS011;1939;48.720;9.166;2023-07-13T13:13:35;2.80;;;1.37;;
3847;SDS011;1939;48.720;9.166;2023-07-13T13:16:20;3.93;;;1.90;;
3847;SDS011;1939;48.720;9.166;2023-07-13T13:18:46;2.13;;;2.00;;
3847;SDS011;1939;48.720;9.166;2023-07-13T13:21:12;2.60;;;1.30;;
3847;SDS011;1939;48.720;9.166;2023-07-13T13:23:37;11.83;;;1.80;;
3847;SDS011;1939;48.720;9.166;2023-07-13T13:26:02;4.20;;;1.93;;
3847;SDS011;1939;48.720;9.166;2023-07-13T13:28:28;3.50;;;1.80;;
3847;SDS011;1939;48.720;9.166;2023-07-13T13:30:54;2.90;;;1.40;;
3847;SDS011;1939;48.720;9.166;2023-07-13T13:33:20;4.57;;;1.90;;
3847;SDS011;1939;48.720;9.166;2023-07-13T13:35:46;2.47;;;1.60;;
3847;SDS011;1939;48.720;9.166;2023-07-13T13:38:16;2.87;;;1.93;;
3847;SDS011;1939;48.720;9.166;2023-07-13T13:40:42;1.73;;;1.53;;
3847;SDS011;1939;48.720;9.166;2023-07-13T13:45:42;1.80;;;1.70;;
3847;SDS011;1939;48.720;9.166;2023-07-13T13:48:13;2.83;;;1.60;;
3847;SDS011;1939;48.720;9.166;2023-07-13T13:50:38;2.03;;;1.20;;
3847;SDS011;1939;48.720;9.166;2023-07-13T13:53:04;6.47;;;2.00;;
3847;SDS011;1939;48.720;9.166;2023-07-13T13:55:29;2.80;;;1.70;;
3847;SDS011;1939;48.720;9.166;2023-07-13T13:57:54;1.93;;;1.70;;
3847;SDS011;1939;48.720;9.166;2023-07-13T14:00:20;3.70;;;1.60;;
3847;SDS011;1939;48.720;9.166;2023-07-13T14:02:46;5.43;;;1.60;;
3847;SDS011;1939;48.720;9.166;2023-07-13T14:05:21;3.17;;;1.57;;
3847;SDS011;1939;48.720;9.166;2023-07-13T14:07:46;1.83;;;1.57;;
3847;SDS011;1939;48.720;9.166;2023-07-13T14:10:13;5.03;;;1.80;;
3847;SDS011;1939;48.720;9.166;2023-07-13T14:12:40;2.93;;;1.50;;
3847;SDS011;1939;48.720;9.166;2023-07-13T14:15:05;2.93;;;1.60;;
3847;SDS011;1939;48.720;9.166;2023-07-13T14:17:31;5.37;;;1.60;;
3847;SDS011;1939;48.720;9.166;2023-07-13T14:19:56;5.93;;;1.97;;
3847;SDS011;1939;48.720;9.166;2023-07-13T14:22:25;4.83;;;1.60;;
3847;SDS011;1939;48.720;9.166;2023-07-13T14:24:54;6.53;;;1.83;;
3847;SDS011;1939;48.720;9.166;2023-07-13T14:27:19;5.87;;;1.90;;
3847;SDS011;1939;48.720;9.166;2023-07-13T14:29:45;2.50;;;1.47;;
3847;SDS011;1939;48.720;9.166;2023-07-13T14:32:11;3.30;;;1.63;;
3847;SDS011;1939;48.720;9.166;2023-07-13T14:34:36;2.33;;;1.93;;
3847;SDS011;1939;48.720;9.166;2023-07-13T14:37:02;5.20;;;1.80;;
3847;SDS011;1939;48.720;9.166;2023-07-13T14:39:29;3.90;;;1.90;;
3847;SDS011;1939;48.720;9.166;2023-07-13T14:41:55;3.53;;;1.67;;
3847;SDS011;1939;48.720;9.166;2023-07-13T14:44:21;5.20;;;1.23;;
3847;SDS011;1939;48.720;9.166;2023-07-13T14:46:48;3.50;;;1.60;;
3847;SDS011;1939;48.720;9.166;2023-07-13T14:51:45;2.00;;;1.40;;
3847;SDS011;1939;48.720;9.166;2023-07-13T14:54:10;5.33;;;2.33;;
3847;SDS011;1939;48.720;9.166;2023-07-13T14:56:36;3.20;;;1.40;;
3847;SDS011;1939;48.720;9.166;2023-07-13T14:59:01;4.47;;;1.80;;
3847;SDS011;1939;48.720;9.166;2023-07-13T15:01:27;1.77;;;1.47;;
3847;SDS011;1939;48.720;9.166;2023-07-13T15:03:53;3.40;;;1.40;;
3847;SDS011;1939;48.720;9.166;2023-07-13T15:06:18;5.30;;;1.50;;
3847;SDS011;1939;48.720;9.166;2023-07-13T15:08:44;4.30;;;1.77;;
3847;SDS011;1939;48.720;9.166;2023-07-13T15:11:10;2.73;;;1.50;;
3847;SDS011;1939;48.720;9.166;2023-07-13T15:13:38;3.47;;;1.60;;
3847;SDS011;1939;48.720;9.166;2023-07-13T15:16:04;2.50;;;1.50;;
3847;SDS011;1939;48.720;9.166;2023-07-13T15:18:30;3.17;;;1.67;;
3847;SDS011;1939;48.720;9.166;2023-07-13T15:20:55;8.13;;;2.03;;
3847;SDS011;1939;48.720;9.166;2023-07-13T15:23:22;2.33;;;1.67;;
3847;SDS011;1939;48.720;9.166;2023-07-13T15:25:48;3.00;;;1.70;;
3847;SDS011;1939;48.720;9.166;2023-07-13T15:28:14;6.50;;;1.70;;
3847;SDS011;1939;48.720;9.166;2023-07-13T15:33:12;5.87;;;1.97;;
3847;SDS011;1939;48.720;9.166;2023-07-13T15:35:38;9.93;;;2.07;;
3847;SDS011;1939;48.720;9.166;2023-07-13T15:38:12;4.30;;;1.50;;
3847;SDS011;1939;48.720;9.166;2023-07-13T15:40:38;2.13;;;1.80;;
3847;SDS011;1939;48.720;9.166;2023-07-13T15:43:04;4.83;;;1.80;;
3847;SDS011;1939;48.720;9.166;2023-07-13T15:45:34;2.40;;;1.50;;
3847;SDS011;1939;48.720;9.166;2023-07-13T15:48:00;2.20;;;1.70;;
3847;SDS011;1939;48.720;9.166;2023-07-13T15:50:25;4.10;;;1.53;;
3847;SDS011;1939;48.720;9.166;2023-07-13T15:52:52;3.80;;;1.83;;
3847;SDS011;1939;48.720;9.166;2023-07-13T15:55:18;2.83;;;1.63;;
3847;SDS011;1939;48.720;9.166;2023-07-13T15:57:47;6.43;;;1.80;;
3847;SDS011;1939;48.720;9.166;2023-07-13T16:00:14;7.73;;;1.90;;
3847;SDS011;1939;48.720;9.166;2023-07-13T16:02:41;3.57;;;1.73;;
3847;SDS011;1939;48.720;9.166;2023-07-13T16:05:06;2.23;;;1.53;;